Terminal Aerodrome Forecast
Issued by NWS

Home | Current Version | Previous Version | Text Only | Print | Product List | Glossary On
Versions: 1 2 3 4 5 6 7 8 9 10 11 12 13
336
FTUS43 KDLH 151604 AAE
TAFHYR
TAF AMD
KHYR 151604Z 1516/1612 33007KT P6SM BKN015
     FM151730 31007KT P6SM SCT020 SCT150
     FM152000 28009KT P6SM SCT080
     FM160100 00000KT P6SM BKN110=

USA.gov is the U.S. government's official web portal to all federal, state and local government web resources and services.